createdAt,value
2023-05-12T00:00:41.674Z,94550.00
2023-05-12T00:01:42.021Z,94550.00
2023-05-12T00:02:41.773Z,94552.00
2023-05-12T00:03:41.848Z,94552.00
2023-05-12T00:04:41.769Z,94552.00
2023-05-12T00:05:41.751Z,94554.00
2023-05-12T00:06:41.722Z,94554.00
2023-05-12T00:07:41.751Z,94550.00
2023-05-12T00:08:41.801Z,94552.00
2023-05-12T00:09:41.801Z,94552.00
2023-05-12T00:10:41.835Z,94552.00
2023-05-12T00:11:41.841Z,94552.00
2023-05-12T00:12:41.830Z,94552.00
2023-05-12T00:13:41.862Z,94548.00
2023-05-12T00:14:41.875Z,94548.00
2023-05-12T00:15:41.881Z,94548.00
2023-05-12T00:16:41.900Z,94546.00
2023-05-12T00:17:41.977Z,94546.00
2023-05-12T00:18:41.930Z,94546.00
2023-05-12T00:19:41.963Z,94546.00
2023-05-12T00:20:41.947Z,94548.00
2023-05-12T00:21:42.116Z,94548.00
2023-05-12T00:22:41.993Z,94546.00
2023-05-12T00:23:42.033Z,94550.00
2023-05-12T00:24:42.030Z,94546.00
2023-05-12T00:25:42.091Z,94546.00
2023-05-12T00:26:42.127Z,94550.00
2023-05-12T00:27:42.120Z,94548.00
2023-05-12T00:28:42.125Z,94550.00
2023-05-12T00:29:42.115Z,94552.00
2023-05-12T00:30:42.180Z,94552.00
2023-05-12T00:31:42.311Z,94552.00
2023-05-12T00:32:42.255Z,94552.00
2023-05-12T00:33:42.246Z,94554.00
2023-05-12T00:34:42.257Z,94554.00
2023-05-12T00:35:42.269Z,94556.00
2023-05-12T00:36:42.272Z,94554.00
2023-05-12T00:37:42.266Z,94554.00
2023-05-12T00:38:42.278Z,94552.00
2023-05-12T00:39:42.305Z,94550.00
2023-05-12T00:40:42.306Z,94550.00
2023-05-12T00:41:42.356Z,94546.00
2023-05-12T00:42:42.366Z,94550.00
2023-05-12T00:43:42.380Z,94548.00
2023-05-12T00:44:42.395Z,94548.00
2023-05-12T00:45:42.382Z,94548.00
2023-05-12T00:46:42.403Z,94546.00
2023-05-12T00:47:42.474Z,94544.00
2023-05-12T00:48:42.467Z,94546.00
2023-05-12T00:49:42.417Z,94546.00
2023-05-12T00:50:42.467Z,94544.00
2023-05-12T00:51:42.483Z,94546.00
2023-05-12T00:52:42.481Z,94546.00
2023-05-12T00:53:49.821Z,94544.00
2023-05-12T00:54:43.527Z,94544.00
2023-05-12T00:55:42.506Z,94542.00
2023-05-12T00:56:42.472Z,94542.00
2023-05-12T00:57:42.536Z,94540.00
2023-05-12T00:58:42.474Z,94540.00
2023-05-12T00:59:42.451Z,94540.00
2023-05-12T01:00:42.429Z,94539.00
2023-05-12T01:01:42.493Z,94537.00
2023-05-12T01:02:42.655Z,94537.00
2023-05-12T01:03:42.453Z,94535.00
2023-05-12T01:04:42.461Z,94539.00
2023-05-12T01:05:42.470Z,94539.00
2023-05-12T01:06:42.398Z,94535.00
2023-05-12T01:07:42.446Z,94535.00
2023-05-12T01:08:42.471Z,94535.00
2023-05-12T01:09:42.402Z,94535.00
2023-05-12T01:10:42.365Z,94533.00
2023-05-12T01:11:42.371Z,94533.00
2023-05-12T01:12:42.336Z,94533.00
2023-05-12T01:13:42.359Z,94533.00
2023-05-12T01:14:42.400Z,94533.00
2023-05-12T01:15:42.341Z,94533.00
2023-05-12T01:16:42.390Z,94531.00
2023-05-12T01:17:42.513Z,94533.00
2023-05-12T01:18:42.372Z,94531.00
2023-05-12T01:19:42.363Z,94533.00
2023-05-12T01:20:42.382Z,94533.00
2023-05-12T01:21:42.381Z,94531.00
2023-05-12T01:22:42.439Z,94531.00
2023-05-12T01:23:42.471Z,94531.00
2023-05-12T01:24:42.443Z,94535.00
2023-05-12T01:25:42.514Z,94531.00
2023-05-12T01:26:42.522Z,94535.00
2023-05-12T01:27:42.548Z,94533.00
2023-05-12T01:28:42.552Z,94535.00
2023-05-12T01:29:42.526Z,94531.00
2023-05-12T01:30:42.613Z,94531.00
2023-05-12T01:31:42.559Z,94529.00
2023-05-12T01:32:42.643Z,94531.00
2023-05-12T01:33:42.572Z,94529.00
2023-05-12T01:34:42.632Z,94531.00
2023-05-12T01:35:42.629Z,94529.00
2023-05-12T01:36:42.629Z,94529.00
2023-05-12T01:37:42.610Z,94529.00
2023-05-12T01:38:42.689Z,94529.00
2023-05-12T01:39:42.653Z,94531.00
2023-05-12T01:40:42.704Z,94531.00
2023-05-12T01:41:42.728Z,94531.00
2023-05-12T01:42:42.738Z,94531.00
2023-05-12T01:43:42.732Z,94531.00
2023-05-12T01:44:42.794Z,94533.00
2023-05-12T01:45:42.769Z,94533.00
2023-05-12T01:46:42.792Z,94531.00
2023-05-12T01:47:42.922Z,94531.00
2023-05-12T01:48:42.816Z,94531.00
2023-05-12T01:49:42.943Z,94531.00
2023-05-12T01:50:42.844Z,94535.00
2023-05-12T01:51:42.890Z,94539.00
2023-05-12T01:52:42.900Z,94533.00
2023-05-12T01:53:42.914Z,94539.00
2023-05-12T01:54:42.970Z,94535.00
2023-05-12T01:55:42.934Z,94537.00
2023-05-12T01:56:43.074Z,94537.00
2023-05-12T01:57:42.956Z,94537.00
2023-05-12T01:58:42.980Z,94537.00
2023-05-12T01:59:42.966Z,94539.00
2023-05-12T02:00:43.015Z,94537.00
2023-05-12T02:01:43.116Z,94540.00
2023-05-12T02:02:43.384Z,94539.00
2023-05-12T02:03:43.162Z,94540.00
2023-05-12T02:04:43.080Z,94540.00
2023-05-12T02:05:43.095Z,94540.00
2023-05-12T02:06:43.105Z,94540.00
2023-05-12T02:07:43.198Z,94540.00
2023-05-12T02:08:43.101Z,94540.00
2023-05-12T02:09:43.121Z,94542.00
2023-05-12T02:10:43.149Z,94542.00
2023-05-12T02:11:43.144Z,94542.00
2023-05-12T02:12:43.252Z,94540.00
2023-05-12T02:13:43.240Z,94544.00
2023-05-12T02:14:43.251Z,94542.00
2023-05-12T02:15:43.367Z,94540.00
2023-05-12T02:16:43.329Z,94539.00
2023-05-12T02:17:43.277Z,94542.00
2023-05-12T02:18:43.219Z,94544.00
2023-05-12T02:19:43.286Z,94548.00
2023-05-12T02:20:43.281Z,94544.00
2023-05-12T02:21:43.294Z,94546.00
2023-05-12T02:22:43.300Z,94544.00
2023-05-12T02:23:43.365Z,94548.00
2023-05-12T02:24:43.334Z,94548.00
2023-05-12T02:25:43.358Z,94546.00
2023-05-12T02:26:43.430Z,94544.00
2023-05-12T02:27:43.362Z,94546.00
2023-05-12T02:28:43.448Z,94544.00
2023-05-12T02:29:43.401Z,94540.00
2023-05-12T02:30:43.463Z,94546.00
2023-05-12T02:31:43.484Z,94540.00
2023-05-12T02:32:43.562Z,94544.00
2023-05-12T02:33:43.477Z,94537.00
2023-05-12T02:34:43.478Z,94537.00
2023-05-12T02:35:43.552Z,94537.00
2023-05-12T02:36:43.570Z,94537.00
2023-05-12T02:37:43.530Z,94535.00
2023-05-12T02:38:43.556Z,94539.00
2023-05-12T02:39:43.571Z,94537.00
2023-05-12T02:40:43.638Z,94539.00
2023-05-12T02:41:43.644Z,94537.00
2023-05-12T02:42:43.682Z,94537.00
2023-05-12T02:43:43.650Z,94537.00
2023-05-12T02:44:43.716Z,94539.00
2023-05-12T02:45:43.700Z,94539.00
2023-05-12T02:46:43.698Z,94537.00
2023-05-12T02:47:43.819Z,94539.00
2023-05-12T02:48:43.786Z,94537.00
2023-05-12T02:49:43.750Z,94537.00
2023-05-12T02:50:43.798Z,94537.00
2023-05-12T02:51:43.909Z,94539.00
2023-05-12T02:52:43.867Z,94537.00
2023-05-12T02:53:43.852Z,94537.00
2023-05-12T02:54:43.849Z,94537.00
2023-05-12T02:55:43.899Z,94535.00
2023-05-12T02:56:43.941Z,94533.00
2023-05-12T02:57:43.944Z,94535.00
2023-05-12T02:58:43.969Z,94533.00
2023-05-12T02:59:44.028Z,94531.00
2023-05-12T03:00:44.005Z,94531.00
2023-05-12T03:01:44.100Z,94531.00
2023-05-12T03:02:44.127Z,94533.00
2023-05-12T03:03:44.320Z,94531.00
2023-05-12T03:04:44.130Z,94533.00
2023-05-12T03:05:44.128Z,94529.00
2023-05-12T03:06:44.176Z,94531.00
2023-05-12T03:07:44.210Z,94527.00
2023-05-12T03:08:44.237Z,94527.00
2023-05-12T03:09:44.221Z,94529.00
2023-05-12T03:10:44.244Z,94527.00
2023-05-12T03:11:44.312Z,94523.00
2023-05-12T03:12:44.292Z,94525.00
2023-05-12T03:13:44.348Z,94525.00
2023-05-12T03:14:44.356Z,94525.00
2023-05-12T03:15:44.357Z,94529.00
2023-05-12T03:16:44.458Z,94529.00
2023-05-12T03:17:44.473Z,94529.00
2023-05-12T03:18:44.494Z,94527.00
2023-05-12T03:19:44.455Z,94531.00
2023-05-12T03:20:44.493Z,94527.00
2023-05-12T03:21:44.526Z,94531.00
2023-05-12T03:22:44.523Z,94531.00
2023-05-12T03:23:44.590Z,94529.00
2023-05-12T03:24:44.652Z,94531.00
2023-05-12T03:25:44.600Z,94531.00
2023-05-12T03:26:44.614Z,94533.00
2023-05-12T03:27:44.666Z,94531.00
2023-05-12T03:28:44.704Z,94533.00
2023-05-12T03:29:44.764Z,94535.00
2023-05-12T03:30:44.770Z,94535.00
2023-05-12T03:31:44.866Z,94537.00
2023-05-12T03:32:44.824Z,94539.00
2023-05-12T03:33:44.893Z,94539.00
2023-05-12T03:34:44.939Z,94539.00
2023-05-12T03:35:44.870Z,94539.00
2023-05-12T03:36:44.904Z,94539.00
2023-05-12T03:37:44.931Z,94539.00
2023-05-12T03:38:44.952Z,94537.00
2023-05-12T03:39:45.007Z,94537.00
2023-05-12T03:40:45.022Z,94535.00
2023-05-12T03:41:45.077Z,94535.00
2023-05-12T03:42:45.075Z,94535.00
2023-05-12T03:43:45.091Z,94537.00
2023-05-12T03:44:45.119Z,94537.00
2023-05-12T03:45:45.138Z,94535.00
2023-05-12T03:46:45.241Z,94537.00
2023-05-12T03:47:45.240Z,94537.00
2023-05-12T03:48:45.223Z,94537.00
2023-05-12T03:49:45.197Z,94535.00
2023-05-12T03:50:45.221Z,94533.00
2023-05-12T03:51:45.237Z,94533.00
2023-05-12T03:52:45.218Z,94533.00
2023-05-12T03:53:45.323Z,94531.00
2023-05-12T03:54:45.284Z,94531.00
2023-05-12T03:55:45.308Z,94533.00
2023-05-12T03:56:45.339Z,94533.00
2023-05-12T03:57:45.395Z,94533.00
2023-05-12T03:58:45.339Z,94533.00
2023-05-12T03:59:45.395Z,94533.00
2023-05-12T04:00:45.417Z,94531.00
2023-05-12T04:01:45.515Z,94535.00
2023-05-12T04:02:45.554Z,94535.00
2023-05-12T04:03:45.620Z,94535.00
2023-05-12T04:04:45.501Z,94533.00
2023-05-12T04:05:45.498Z,94535.00
2023-05-12T04:06:45.547Z,94535.00
2023-05-12T04:07:45.627Z,94539.00
2023-05-12T04:08:45.624Z,94537.00
2023-05-12T04:09:45.650Z,94533.00
2023-05-12T04:10:45.701Z,94537.00
2023-05-12T04:11:45.755Z,94539.00
2023-05-12T04:12:45.800Z,94537.00
2023-05-12T04:13:45.870Z,94539.00
2023-05-12T04:14:46.022Z,94540.00
2023-05-12T04:15:45.976Z,94540.00
2023-05-12T04:16:46.041Z,94544.00
2023-05-12T04:17:46.065Z,94540.00
2023-05-12T04:18:46.080Z,94542.00
2023-05-12T04:19:46.168Z,94544.00
2023-05-12T04:20:46.178Z,94542.00
2023-05-12T04:21:46.279Z,94540.00
2023-05-12T04:22:46.275Z,94540.00
2023-05-12T04:23:46.336Z,94539.00
2023-05-12T04:24:46.324Z,94540.00
2023-05-12T04:25:46.378Z,94540.00
2023-05-12T04:26:46.379Z,94542.00
2023-05-12T04:27:46.480Z,94542.00
2023-05-12T04:28:46.413Z,94542.00
2023-05-12T04:29:46.452Z,94544.00
2023-05-12T04:30:46.531Z,94546.00
2023-05-12T04:31:46.562Z,94548.00
2023-05-12T04:32:46.636Z,94548.00
2023-05-12T04:33:48.376Z,94548.00
2023-05-12T04:34:46.629Z,94552.00
2023-05-12T04:35:46.766Z,94550.00
2023-05-12T04:36:46.776Z,94552.00
2023-05-12T04:37:46.810Z,94548.00
2023-05-12T04:38:46.865Z,94548.00
2023-05-12T04:39:46.941Z,94544.00
2023-05-12T04:40:46.999Z,94548.00
2023-05-12T04:41:47.124Z,94544.00
2023-05-12T04:42:47.119Z,94550.00
2023-05-12T04:44:47.112Z,94550.00
2023-05-12T04:45:47.177Z,94554.00
2023-05-12T04:46:47.137Z,94548.00
2023-05-12T04:47:47.161Z,94550.00
2023-05-12T04:48:47.137Z,94552.00
2023-05-12T04:49:47.061Z,94554.00
2023-05-12T04:50:47.075Z,94556.00
2023-05-12T04:51:47.089Z,94556.00
2023-05-12T04:52:47.050Z,94554.00
2023-05-12T04:53:47.084Z,94554.00
2023-05-12T04:54:47.025Z,94556.00
2023-05-12T04:55:47.073Z,94556.00
2023-05-12T04:56:47.020Z,94558.00
2023-05-12T04:57:47.028Z,94542.00
2023-05-12T04:58:47.008Z,94544.00
2023-05-12T04:59:47.058Z,94544.00
2023-05-12T05:00:47.023Z,94550.00
2023-05-12T05:01:47.186Z,94552.00
2023-05-12T05:02:47.246Z,94552.00
2023-05-12T05:03:47.069Z,94552.00
2023-05-12T05:04:47.031Z,94556.00
2023-05-12T05:05:46.978Z,94552.00
2023-05-12T05:06:46.954Z,94554.00
2023-05-12T05:07:47.017Z,94552.00
2023-05-12T05:08:47.003Z,94554.00
2023-05-12T05:09:46.959Z,94556.00
2023-05-12T05:10:46.970Z,94554.00
2023-05-12T05:11:46.981Z,94556.00
2023-05-12T05:12:46.933Z,94552.00
2023-05-12T05:13:46.960Z,94552.00
2023-05-12T05:14:46.947Z,94552.00
2023-05-12T05:15:46.927Z,94554.00
2023-05-12T05:16:46.902Z,94554.00
2023-05-12T05:17:46.967Z,94554.00
2023-05-12T05:18:47.069Z,94556.00
2023-05-12T05:19:57.542Z,94554.00
2023-05-12T05:20:57.220Z,94554.00
2023-05-12T05:21:47.893Z,94556.00
2023-05-12T05:22:47.008Z,94554.00
2023-05-12T05:23:46.872Z,94554.00
2023-05-12T05:24:46.853Z,94560.00
2023-05-12T05:25:46.836Z,94558.00
2023-05-12T05:26:46.846Z,94558.00
2023-05-12T05:27:46.835Z,94560.00
2023-05-12T05:28:46.829Z,94560.00
2023-05-12T05:29:46.871Z,94562.00
2023-05-12T05:30:46.810Z,94562.00
2023-05-12T05:31:46.855Z,94566.00
2023-05-12T05:32:46.840Z,94566.00
2023-05-12T05:33:46.795Z,94566.00
2023-05-12T05:34:46.787Z,94568.00
2023-05-12T05:35:46.792Z,94568.00
2023-05-12T05:36:46.831Z,94564.00
2023-05-12T05:37:46.765Z,94564.00
2023-05-12T05:38:46.748Z,94566.00
2023-05-12T05:39:47.127Z,94562.00
2023-05-12T05:40:53.814Z,94560.00
2023-05-12T05:41:47.752Z,94560.00
2023-05-12T05:42:46.745Z,94560.00
2023-05-12T05:43:46.851Z,94560.00
2023-05-12T05:44:46.740Z,94562.00
2023-05-12T05:45:47.146Z,94560.00
2023-05-12T05:46:46.741Z,94560.00
2023-05-12T05:47:46.764Z,94560.00
2023-05-12T05:48:47.203Z,94562.00
2023-05-12T05:49:46.679Z,94562.00
2023-05-12T05:50:46.692Z,94562.00
2023-05-12T05:51:46.651Z,94560.00
2023-05-12T05:52:47.660Z,94558.00
2023-05-12T05:53:46.711Z,94560.00
2023-05-12T05:54:46.658Z,94562.00
2023-05-12T05:55:47.140Z,94562.00
2023-05-12T05:56:47.128Z,94562.00
2023-05-12T05:57:47.180Z,94560.00
2023-05-12T05:58:46.627Z,94562.00
2023-05-12T05:59:46.681Z,94558.00
2023-05-12T06:00:47.147Z,94562.00
2023-05-12T06:01:46.743Z,94562.00
2023-05-12T06:02:47.097Z,94560.00
2023-05-12T06:03:46.988Z,94560.00
2023-05-12T06:04:47.123Z,94558.00
2023-05-12T06:05:46.875Z,94562.00
2023-05-12T06:06:46.885Z,94560.00
2023-05-12T06:07:46.946Z,94560.00
2023-05-12T06:08:46.926Z,94560.00
2023-05-12T06:09:46.963Z,94560.00
2023-05-12T06:10:46.992Z,94560.00
2023-05-12T06:11:47.025Z,94560.00
2023-05-12T06:12:46.976Z,94560.00
2023-05-12T06:13:46.986Z,94562.00
2023-05-12T06:14:47.010Z,94564.00
2023-05-12T06:15:46.998Z,94560.00
2023-05-12T06:16:47.019Z,94562.00
2023-05-12T06:17:47.051Z,94560.00
2023-05-12T06:18:47.095Z,94562.00
2023-05-12T06:19:47.089Z,94562.00
2023-05-12T06:20:47.010Z,94562.00
2023-05-12T06:21:47.051Z,94560.00
2023-05-12T06:22:47.081Z,94560.00
2023-05-12T06:23:47.071Z,94566.00
2023-05-12T06:24:47.077Z,94564.00
2023-05-12T06:25:47.174Z,94566.00
2023-05-12T06:26:47.226Z,94564.00
2023-05-12T06:27:47.632Z,94562.00
2023-05-12T06:28:47.256Z,94564.00
2023-05-12T06:29:47.318Z,94560.00
2023-05-12T06:30:47.377Z,94562.00
2023-05-12T06:31:47.443Z,94562.00
2023-05-12T06:32:47.714Z,94562.00
2023-05-12T06:33:47.484Z,94566.00
2023-05-12T06:34:47.483Z,94564.00
2023-05-12T06:35:47.564Z,94566.00
2023-05-12T06:36:47.537Z,94566.00
2023-05-12T06:37:47.577Z,94566.00
2023-05-12T06:38:47.512Z,94564.00
2023-05-12T06:39:47.587Z,94562.00
2023-05-12T06:40:47.582Z,94566.00
2023-05-12T06:41:47.608Z,94566.00
2023-05-12T06:42:47.731Z,94566.00
2023-05-12T06:43:47.651Z,94564.00
2023-05-12T06:44:47.603Z,94566.00
2023-05-12T06:45:47.605Z,94566.00
2023-05-12T06:46:47.772Z,94564.00
2023-05-12T06:47:47.739Z,94564.00
2023-05-12T06:48:47.604Z,94562.00
2023-05-12T06:49:47.712Z,94564.00
2023-05-12T06:50:47.697Z,94562.00
2023-05-12T06:51:47.775Z,94564.00
2023-05-12T06:52:47.709Z,94566.00
2023-05-12T06:53:47.698Z,94564.00
2023-05-12T06:54:47.723Z,94562.00
2023-05-12T06:55:47.748Z,94564.00
2023-05-12T06:56:47.749Z,94562.00
2023-05-12T06:57:48.229Z,94558.00
2023-05-12T06:58:48.159Z,94558.00
2023-05-12T06:59:47.730Z,94558.00
2023-05-12T07:00:47.769Z,94558.00
2023-05-12T07:01:47.882Z,94552.00
2023-05-12T07:02:47.823Z,94554.00
2023-05-12T07:03:48.239Z,94556.00
2023-05-12T07:04:47.860Z,94556.00
2023-05-12T07:05:48.000Z,94560.00
2023-05-12T07:06:47.910Z,94554.00
2023-05-12T07:07:47.943Z,94556.00
2023-05-12T07:08:47.999Z,94554.00
2023-05-12T07:09:48.104Z,94556.00
2023-05-12T07:10:48.153Z,94560.00
2023-05-12T07:11:48.107Z,94558.00
2023-05-12T07:12:48.118Z,94556.00
2023-05-12T07:13:48.177Z,94556.00
2023-05-12T07:14:48.248Z,94554.00
2023-05-12T07:15:48.258Z,94552.00
2023-05-12T07:16:48.208Z,94550.00
2023-05-12T07:17:48.357Z,94548.00
2023-05-12T07:18:48.257Z,94548.00
2023-05-12T07:19:48.311Z,94544.00
2023-05-12T07:20:49.191Z,94552.00
2023-05-12T07:21:48.379Z,94548.00
2023-05-12T07:22:48.400Z,94544.00
2023-05-12T07:23:48.427Z,94546.00
2023-05-12T07:24:48.581Z,94542.00
2023-05-12T07:25:48.653Z,94546.00
2023-05-12T07:26:48.474Z,94542.00
2023-05-12T07:27:48.462Z,94544.00
2023-05-12T07:28:48.473Z,94544.00
2023-05-12T07:29:48.473Z,94540.00
2023-05-12T07:30:48.494Z,94540.00
2023-05-12T07:31:48.855Z,94539.00
2023-05-12T07:32:48.727Z,94537.00
2023-05-12T07:33:48.525Z,94537.00
2023-05-12T07:34:48.555Z,94540.00
2023-05-12T07:35:48.627Z,94539.00
2023-05-12T07:36:48.629Z,94537.00
2023-05-12T07:37:48.634Z,94517.00
2023-05-12T07:38:48.640Z,94564.00
2023-05-12T07:39:48.769Z,94540.00
2023-05-12T07:40:48.750Z,94562.00
2023-05-12T07:41:48.756Z,94560.00
2023-05-12T07:42:48.761Z,94562.00
2023-05-12T07:43:48.896Z,94560.00
2023-05-12T07:44:48.890Z,94560.00
2023-05-12T07:45:48.967Z,94560.00
2023-05-12T07:46:48.990Z,94558.00
2023-05-12T07:47:49.024Z,94539.00
2023-05-12T07:48:49.004Z,94556.00
2023-05-12T07:49:49.043Z,94548.00
2023-05-12T07:50:49.037Z,94556.00
2023-05-12T07:51:49.050Z,94560.00
2023-05-12T07:52:49.043Z,94558.00
2023-05-12T07:53:49.061Z,94560.00
2023-05-12T07:54:49.076Z,94562.00
2023-05-12T07:55:49.162Z,94554.00
2023-05-12T07:56:49.233Z,94558.00
2023-05-12T07:57:49.262Z,94556.00
2023-05-12T07:58:49.278Z,94556.00
2023-05-12T07:59:49.394Z,94554.00
2023-05-12T08:00:49.409Z,94554.00
2023-05-12T08:01:49.493Z,94554.00
2023-05-12T08:02:49.611Z,94554.00
2023-05-12T08:03:49.544Z,94556.00
2023-05-12T08:04:49.507Z,94552.00
2023-05-12T08:05:49.455Z,94548.00
2023-05-12T08:06:49.523Z,94552.00
2023-05-12T08:07:49.524Z,94552.00
2023-05-12T08:08:49.520Z,94550.00
2023-05-12T08:09:49.571Z,94548.00
2023-05-12T08:10:52.207Z,94546.00
2023-05-12T08:11:51.456Z,94550.00
2023-05-12T08:12:49.500Z,94544.00
2023-05-12T08:13:49.451Z,94548.00
2023-05-12T08:14:49.506Z,94546.00
2023-05-12T08:15:49.469Z,94546.00
2023-05-12T08:16:49.545Z,94544.00
2023-05-12T08:17:49.762Z,94544.00
2023-05-12T08:18:49.713Z,94546.00
2023-05-12T08:19:49.661Z,94546.00
2023-05-12T08:20:49.844Z,94544.00
2023-05-12T08:21:49.759Z,94546.00
2023-05-12T08:22:49.824Z,94542.00
2023-05-12T08:23:49.878Z,94546.00
2023-05-12T08:24:49.883Z,94540.00
2023-05-12T08:25:49.991Z,94540.00
2023-05-12T08:26:50.076Z,94517.00
2023-05-12T08:27:50.071Z,94519.00
2023-05-12T08:28:50.205Z,94517.00
2023-05-12T08:29:50.199Z,94519.00
2023-05-12T08:30:50.353Z,94517.00
2023-05-12T08:31:50.333Z,94517.00
2023-05-12T08:32:50.480Z,94519.00
2023-05-12T08:33:59.454Z,94517.00
2023-05-12T08:34:51.434Z,94519.00
2023-05-12T08:35:50.417Z,94517.00
2023-05-12T08:36:50.445Z,94519.00
2023-05-12T08:37:50.378Z,94517.00
2023-05-12T08:38:50.386Z,94517.00
2023-05-12T08:39:50.379Z,94517.00
2023-05-12T08:40:50.392Z,94515.00
2023-05-12T08:41:50.398Z,94535.00
2023-05-12T08:42:50.464Z,94537.00
2023-05-12T08:43:50.365Z,94537.00
2023-05-12T08:44:50.371Z,94535.00
2023-05-12T08:45:50.389Z,94537.00
2023-05-12T08:46:50.454Z,94539.00
2023-05-12T08:47:50.776Z,94539.00
2023-05-12T08:48:50.362Z,94540.00
2023-05-12T08:49:51.815Z,94535.00
2023-05-12T08:50:50.314Z,94537.00
2023-05-12T08:51:57.941Z,94535.00
2023-05-12T08:52:51.294Z,94535.00
2023-05-12T08:53:50.288Z,94533.00
2023-05-12T08:54:56.170Z,94535.00
2023-05-12T08:57:08.955Z,94535.00
2023-05-12T08:57:50.286Z,94535.00
2023-05-12T08:58:50.276Z,94535.00
2023-05-12T08:59:50.282Z,94533.00
2023-05-12T09:00:50.308Z,94535.00
2023-05-12T09:01:50.300Z,94535.00
2023-05-12T09:02:54.020Z,94533.00
2023-05-12T09:03:50.282Z,94484.00
2023-05-12T09:04:50.443Z,94484.00
2023-05-12T09:05:50.392Z,94482.00
2023-05-12T09:06:50.233Z,94484.00
2023-05-12T09:07:50.193Z,94484.00
2023-05-12T09:08:50.184Z,94482.00
2023-05-12T09:09:50.184Z,94484.00
2023-05-12T09:10:50.202Z,94484.00
2023-05-12T09:11:50.202Z,94482.00
2023-05-12T09:12:50.198Z,94484.00
2023-05-12T09:13:50.180Z,94482.00
2023-05-12T09:14:50.176Z,94480.00
2023-05-12T09:15:50.234Z,94482.00
2023-05-12T09:16:50.249Z,94480.00
2023-05-12T09:17:50.199Z,94482.00
2023-05-12T09:18:50.209Z,94480.00
2023-05-12T09:19:50.164Z,94480.00
2023-05-12T09:20:50.190Z,94476.00
2023-05-12T09:21:50.139Z,94480.00
2023-05-12T09:22:50.129Z,94476.00
2023-05-12T09:23:50.141Z,94476.00
2023-05-12T09:24:50.109Z,94476.00
2023-05-12T09:25:50.093Z,94474.00
2023-05-12T09:26:50.184Z,94476.00
2023-05-12T09:27:50.096Z,94505.00
2023-05-12T09:28:50.067Z,94505.00
2023-05-12T09:29:58.479Z,94507.00
2023-05-12T09:30:51.047Z,94503.00
2023-05-12T09:31:50.112Z,94505.00
2023-05-12T09:32:50.130Z,94505.00
2023-05-12T09:33:50.082Z,94503.00
2023-05-12T09:34:50.053Z,94505.00
2023-05-12T09:35:50.053Z,94505.00
2023-05-12T09:36:50.031Z,94501.00
2023-05-12T09:37:50.131Z,94505.00
2023-05-12T09:38:50.035Z,94505.00
2023-05-12T09:39:50.036Z,94503.00
2023-05-12T09:40:50.002Z,94525.00
2023-05-12T09:41:50.010Z,94501.00
2023-05-12T09:42:49.998Z,94503.00
2023-05-12T09:43:50.078Z,94507.00
2023-05-12T09:44:49.979Z,94507.00
2023-05-12T09:45:50.055Z,94507.00
2023-05-12T09:46:50.009Z,94505.00
2023-05-12T09:47:49.985Z,94507.00
2023-05-12T09:48:49.946Z,94503.00
2023-05-12T09:49:50.012Z,94501.00
2023-05-12T09:50:50.018Z,94501.00
2023-05-12T09:51:50.063Z,94501.00
2023-05-12T09:52:50.139Z,94501.00
2023-05-12T09:53:50.182Z,94503.00
2023-05-12T09:54:50.141Z,94499.00
2023-05-12T09:55:50.150Z,94497.00
2023-05-12T09:56:50.152Z,94499.00
2023-05-12T09:57:50.174Z,94497.00
2023-05-12T09:58:50.173Z,94497.00
2023-05-12T09:59:50.222Z,94493.00
2023-05-12T10:01:06.662Z,94491.00
2023-05-12T10:01:51.284Z,94491.00
2023-05-12T10:02:50.215Z,94489.00
2023-05-12T10:03:50.204Z,94487.00
2023-05-12T10:04:50.271Z,94491.00
2023-05-12T10:05:50.166Z,94487.00
2023-05-12T10:06:50.175Z,94485.00
2023-05-12T10:07:50.186Z,94484.00
2023-05-12T10:08:50.127Z,94480.00
2023-05-12T10:09:50.218Z,94480.00
2023-05-12T10:10:50.416Z,94478.00
2023-05-12T10:11:52.831Z,94472.00
2023-05-12T10:12:50.109Z,94474.00
2023-05-12T10:13:50.153Z,94476.00
2023-05-12T10:14:50.116Z,94472.00
2023-05-12T10:15:50.117Z,94476.00
2023-05-12T10:16:50.135Z,94474.00
2023-05-12T10:17:52.965Z,94472.00
2023-05-12T10:18:50.206Z,94478.00
2023-05-12T10:19:50.103Z,94474.00
2023-05-12T10:20:50.132Z,94474.00
2023-05-12T10:21:50.081Z,94480.00
2023-05-12T10:22:50.073Z,94480.00
2023-05-12T10:23:50.054Z,94476.00
2023-05-12T10:24:50.041Z,94474.00
2023-05-12T10:25:50.118Z,94474.00
2023-05-12T10:26:50.060Z,94476.00
2023-05-12T10:27:49.996Z,94478.00
2023-05-12T10:28:50.026Z,94476.00
2023-05-12T10:29:51.353Z,94478.00
2023-05-12T10:30:50.029Z,94478.00
2023-05-12T10:31:50.164Z,94476.00
2023-05-12T10:32:50.020Z,94474.00
2023-05-12T10:33:50.096Z,94474.00
2023-05-12T10:34:49.951Z,94476.00
2023-05-12T10:35:49.950Z,94474.00
2023-05-12T10:36:49.971Z,94474.00
2023-05-12T10:37:49.936Z,94470.00
2023-05-12T10:38:49.948Z,94470.00
2023-05-12T10:39:49.943Z,94472.00
2023-05-12T10:40:49.940Z,94472.00
2023-05-12T10:41:51.118Z,94472.00
2023-05-12T10:42:50.058Z,94476.00
2023-05-12T10:43:50.842Z,94472.00
2023-05-12T10:44:50.145Z,94472.00
2023-05-12T10:45:50.198Z,94474.00
2023-05-12T10:46:50.179Z,94472.00
2023-05-12T10:47:50.249Z,94470.00
2023-05-12T10:48:50.206Z,94470.00
2023-05-12T10:49:50.207Z,94466.00
2023-05-12T10:50:50.215Z,94464.00
2023-05-12T10:51:50.230Z,94468.00
2023-05-12T10:52:50.194Z,94468.00
2023-05-12T10:53:54.350Z,94466.00
2023-05-12T10:54:50.182Z,94464.00
2023-05-12T10:55:50.566Z,94466.00
2023-05-12T10:56:50.498Z,94462.00
2023-05-12T10:57:50.388Z,94462.00
2023-05-12T10:58:51.012Z,94462.00
2023-05-12T10:59:51.580Z,94458.00
2023-05-12T11:00:50.674Z,94458.00
2023-05-12T11:01:50.797Z,94466.00
2023-05-12T11:02:51.070Z,94466.00
2023-05-12T11:03:51.088Z,94462.00
2023-05-12T11:04:50.517Z,94460.00
2023-05-12T11:05:50.619Z,94460.00
2023-05-12T11:06:50.269Z,94458.00
2023-05-12T11:07:50.690Z,94460.00
2023-05-12T11:08:50.712Z,94458.00
2023-05-12T11:09:58.627Z,94460.00
2023-05-12T11:10:51.307Z,94460.00
2023-05-12T11:11:50.186Z,94456.00
2023-05-12T11:12:50.054Z,94450.00
2023-05-12T11:13:50.128Z,94452.00
2023-05-12T11:14:50.096Z,94450.00
2023-05-12T11:15:50.079Z,94450.00
2023-05-12T11:16:50.080Z,94450.00
2023-05-12T11:17:50.111Z,94450.00
2023-05-12T11:18:50.067Z,94450.00
2023-05-12T11:19:50.019Z,94468.00
2023-05-12T11:20:50.026Z,94470.00
2023-05-12T11:21:50.088Z,94472.00
2023-05-12T11:22:50.035Z,94468.00
2023-05-12T11:23:50.076Z,94468.00
2023-05-12T11:24:50.081Z,94466.00
2023-05-12T11:25:50.120Z,94468.00
2023-05-12T11:26:50.156Z,94466.00
2023-05-12T11:27:50.175Z,94466.00
2023-05-12T11:28:50.123Z,94448.00
2023-05-12T11:29:50.178Z,94462.00
2023-05-12T11:30:51.019Z,94468.00
2023-05-12T11:31:50.229Z,94464.00
2023-05-12T11:32:50.193Z,94464.00
2023-05-12T11:33:58.524Z,94462.00
2023-05-12T11:34:51.141Z,94462.00
2023-05-12T11:35:50.225Z,94456.00
2023-05-12T11:36:50.110Z,94458.00
2023-05-12T11:37:50.122Z,94460.00
2023-05-12T11:38:50.131Z,94456.00
2023-05-12T11:39:50.152Z,94456.00
2023-05-12T11:40:50.095Z,94454.00
2023-05-12T11:41:51.413Z,94458.00
2023-05-12T11:42:50.117Z,94456.00
2023-05-12T11:43:50.111Z,94456.00
2023-05-12T11:44:50.067Z,94458.00
2023-05-12T11:45:50.093Z,94458.00
2023-05-12T11:46:50.090Z,94454.00